sensor_id;sensor_type;location;lat;lon;timestamp;P1;durP1;ratioP1;P2;durP2;ratioP2
3726;SDS011;1879;45.876;12.300;2023-12-04T00:00:37;22.90;;;20.87;;
3726;SDS011;1879;45.876;12.300;2023-12-04T00:03:04;24.27;;;22.13;;
3726;SDS011;1879;45.876;12.300;2023-12-04T00:05:31;22.70;;;20.70;;
3726;SDS011;1879;45.876;12.300;2023-12-04T00:07:58;24.63;;;22.43;;
3726;SDS011;1879;45.876;12.300;2023-12-04T00:10:25;22.77;;;20.63;;
3726;SDS011;1879;45.876;12.300;2023-12-04T00:12:52;21.80;;;19.80;;
3726;SDS011;1879;45.876;12.300;2023-12-04T00:15:19;21.83;;;19.93;;
3726;SDS011;1879;45.876;12.300;2023-12-04T00:17:47;22.70;;;20.70;;
3726;SDS011;1879;45.876;12.300;2023-12-04T00:20:15;22.27;;;20.10;;
3726;SDS011;1879;45.876;12.300;2023-12-04T00:22:42;22.70;;;20.50;;
3726;SDS011;1879;45.876;12.300;2023-12-04T00:25:09;21.73;;;19.70;;
3726;SDS011;1879;45.876;12.300;2023-12-04T00:27:36;22.50;;;20.47;;
3726;SDS011;1879;45.876;12.300;2023-12-04T00:30:03;22.40;;;20.30;;
3726;SDS011;1879;45.876;12.300;2023-12-04T00:32:31;22.63;;;20.70;;
3726;SDS011;1879;45.876;12.300;2023-12-04T00:34:59;19.75;;;17.95;;
3726;SDS011;1879;45.876;12.300;2023-12-04T00:37:26;20.57;;;18.70;;
3726;SDS011;1879;45.876;12.300;2023-12-04T00:39:53;21.90;;;19.90;;
3726;SDS011;1879;45.876;12.300;2023-12-04T00:42:20;18.13;;;16.33;;
3726;SDS011;1879;45.876;12.300;2023-12-04T00:44:47;21.47;;;19.37;;
3726;SDS011;1879;45.876;12.300;2023-12-04T00:47:20;19.80;;;17.97;;
3726;SDS011;1879;45.876;12.300;2023-12-04T00:49:47;22.20;;;20.20;;
3726;SDS011;1879;45.876;12.300;2023-12-04T00:52:16;21.77;;;19.57;;
3726;SDS011;1879;45.876;12.300;2023-12-04T00:54:43;23.30;;;21.10;;
3726;SDS011;1879;45.876;12.300;2023-12-04T00:57:10;23.30;;;21.20;;
3726;SDS011;1879;45.876;12.300;2023-12-04T00:59:37;23.93;;;21.53;;
3726;SDS011;1879;45.876;12.300;2023-12-04T01:02:04;22.90;;;20.70;;
3726;SDS011;1879;45.876;12.300;2023-12-04T01:04:32;22.30;;;20.20;;
3726;SDS011;1879;45.876;12.300;2023-12-04T01:06:59;23.63;;;21.47;;
3726;SDS011;1879;45.876;12.300;2023-12-04T01:09:28;20.70;;;18.83;;
3726;SDS011;1879;45.876;12.300;2023-12-04T01:11:55;21.57;;;19.57;;
3726;SDS011;1879;45.876;12.300;2023-12-04T01:14:23;22.80;;;20.60;;
3726;SDS011;1879;45.876;12.300;2023-12-04T01:16:50;21.90;;;19.90;;
3726;SDS011;1879;45.876;12.300;2023-12-04T01:19:17;20.73;;;18.73;;
3726;SDS011;1879;45.876;12.300;2023-12-04T01:21:44;20.17;;;18.27;;
3726;SDS011;1879;45.876;12.300;2023-12-04T01:24:11;19.70;;;18.00;;
3726;SDS011;1879;45.876;12.300;2023-12-04T01:26:39;21.13;;;18.90;;
3726;SDS011;1879;45.876;12.300;2023-12-04T01:29:06;19.97;;;18.17;;
3726;SDS011;1879;45.876;12.300;2023-12-04T01:31:33;20.23;;;18.50;;
3726;SDS011;1879;45.876;12.300;2023-12-04T01:34:00;20.50;;;18.80;;
3726;SDS011;1879;45.876;12.300;2023-12-04T01:36:27;20.13;;;18.37;;
3726;SDS011;1879;45.876;12.300;2023-12-04T01:38:54;19.90;;;18.00;;
3726;SDS011;1879;45.876;12.300;2023-12-04T01:41:21;20.90;;;18.93;;
3726;SDS011;1879;45.876;12.300;2023-12-04T01:43:49;19.83;;;18.03;;
3726;SDS011;1879;45.876;12.300;2023-12-04T01:46:17;19.20;;;17.40;;
3726;SDS011;1879;45.876;12.300;2023-12-04T01:48:44;19.77;;;18.07;;
3726;SDS011;1879;45.876;12.300;2023-12-04T01:51:12;19.77;;;17.90;;
3726;SDS011;1879;45.876;12.300;2023-12-04T01:53:39;18.13;;;16.53;;
3726;SDS011;1879;45.876;12.300;2023-12-04T01:56:08;19.30;;;17.67;;
3726;SDS011;1879;45.876;12.300;2023-12-04T01:58:36;19.50;;;17.90;;
3726;SDS011;1879;45.876;12.300;2023-12-04T02:01:05;20.30;;;18.50;;
3726;SDS011;1879;45.876;12.300;2023-12-04T02:03:33;20.57;;;18.77;;
3726;SDS011;1879;45.876;12.300;2023-12-04T02:06:01;20.20;;;18.33;;
3726;SDS011;1879;45.876;12.300;2023-12-04T02:08:28;20.13;;;18.37;;
3726;SDS011;1879;45.876;12.300;2023-12-04T02:10:56;20.23;;;18.40;;
3726;SDS011;1879;45.876;12.300;2023-12-04T02:13:23;18.97;;;17.37;;
3726;SDS011;1879;45.876;12.300;2023-12-04T02:15:51;19.40;;;17.80;;
3726;SDS011;1879;45.876;12.300;2023-12-04T02:18:22;20.47;;;18.70;;
3726;SDS011;1879;45.876;12.300;2023-12-04T02:20:50;20.30;;;18.23;;
3726;SDS011;1879;45.876;12.300;2023-12-04T02:23:17;19.10;;;17.40;;
3726;SDS011;1879;45.876;12.300;2023-12-04T02:25:45;21.00;;;19.10;;
3726;SDS011;1879;45.876;12.300;2023-12-04T02:28:13;20.77;;;18.90;;
3726;SDS011;1879;45.876;12.300;2023-12-04T02:30:43;18.67;;;17.17;;
3726;SDS011;1879;45.876;12.300;2023-12-04T02:33:12;20.23;;;18.43;;
3726;SDS011;1879;45.876;12.300;2023-12-04T02:35:40;21.27;;;19.37;;
3726;SDS011;1879;45.876;12.300;2023-12-04T02:38:09;20.47;;;18.67;;
3726;SDS011;1879;45.876;12.300;2023-12-04T02:40:37;20.93;;;19.07;;
3726;SDS011;1879;45.876;12.300;2023-12-04T02:43:05;20.73;;;18.83;;
3726;SDS011;1879;45.876;12.300;2023-12-04T02:45:32;18.50;;;16.87;;
3726;SDS011;1879;45.876;12.300;2023-12-04T02:47:59;18.83;;;17.13;;
3726;SDS011;1879;45.876;12.300;2023-12-04T02:50:26;20.23;;;18.43;;
3726;SDS011;1879;45.876;12.300;2023-12-04T02:52:53;19.17;;;17.20;;
3726;SDS011;1879;45.876;12.300;2023-12-04T02:55:20;19.83;;;18.00;;
3726;SDS011;1879;45.876;12.300;2023-12-04T02:57:47;18.77;;;17.10;;
3726;SDS011;1879;45.876;12.300;2023-12-04T03:00:16;18.97;;;17.30;;
3726;SDS011;1879;45.876;12.300;2023-12-04T03:02:43;20.00;;;18.30;;
3726;SDS011;1879;45.876;12.300;2023-12-04T03:05:10;19.30;;;17.60;;
3726;SDS011;1879;45.876;12.300;2023-12-04T03:07:37;21.00;;;19.10;;
3726;SDS011;1879;45.876;12.300;2023-12-04T03:10:05;19.53;;;17.73;;
3726;SDS011;1879;45.876;12.300;2023-12-04T03:12:32;19.07;;;17.43;;
3726;SDS011;1879;45.876;12.300;2023-12-04T03:14:59;18.80;;;17.00;;
3726;SDS011;1879;45.876;12.300;2023-12-04T03:17:28;20.90;;;19.07;;
3726;SDS011;1879;45.876;12.300;2023-12-04T03:19:54;19.70;;;18.00;;
3726;SDS011;1879;45.876;12.300;2023-12-04T03:22:21;19.40;;;17.80;;
3726;SDS011;1879;45.876;12.300;2023-12-04T03:24:48;18.77;;;17.07;;
3726;SDS011;1879;45.876;12.300;2023-12-04T03:27:15;18.77;;;17.17;;
3726;SDS011;1879;45.876;12.300;2023-12-04T03:29:42;18.23;;;16.67;;
3726;SDS011;1879;45.876;12.300;2023-12-04T03:32:09;17.10;;;15.40;;
3726;SDS011;1879;45.876;12.300;2023-12-04T03:34:37;18.60;;;16.83;;
3726;SDS011;1879;45.876;12.300;2023-12-04T03:37:04;16.93;;;15.53;;
3726;SDS011;1879;45.876;12.300;2023-12-04T03:39:31;17.83;;;16.30;;
3726;SDS011;1879;45.876;12.300;2023-12-04T03:41:58;16.60;;;15.20;;
3726;SDS011;1879;45.876;12.300;2023-12-04T03:44:25;17.87;;;16.20;;
3726;SDS011;1879;45.876;12.300;2023-12-04T03:46:52;17.57;;;16.07;;
3726;SDS011;1879;45.876;12.300;2023-12-04T03:49:19;18.27;;;16.50;;
3726;SDS011;1879;45.876;12.300;2023-12-04T03:51:48;18.40;;;16.60;;
3726;SDS011;1879;45.876;12.300;2023-12-04T03:54:15;18.60;;;16.90;;
3726;SDS011;1879;45.876;12.300;2023-12-04T03:56:42;18.40;;;16.70;;
3726;SDS011;1879;45.876;12.300;2023-12-04T03:59:09;19.03;;;17.20;;
3726;SDS011;1879;45.876;12.300;2023-12-04T04:01:36;19.73;;;17.83;;
3726;SDS011;1879;45.876;12.300;2023-12-04T04:04:03;18.03;;;16.50;;
3726;SDS011;1879;45.876;12.300;2023-12-04T04:06:30;20.10;;;18.40;;
3726;SDS011;1879;45.876;12.300;2023-12-04T04:08:58;19.40;;;17.40;;
3726;SDS011;1879;45.876;12.300;2023-12-04T04:11:25;21.60;;;19.70;;
3726;SDS011;1879;45.876;12.300;2023-12-04T04:13:52;18.90;;;17.23;;
3726;SDS011;1879;45.876;12.300;2023-12-04T04:16:19;20.13;;;18.03;;
3726;SDS011;1879;45.876;12.300;2023-12-04T04:18:46;19.60;;;18.00;;
3726;SDS011;1879;45.876;12.300;2023-12-04T04:21:13;20.70;;;18.70;;
3726;SDS011;1879;45.876;12.300;2023-12-04T04:23:40;19.23;;;17.53;;
3726;SDS011;1879;45.876;12.300;2023-12-04T04:26:08;19.20;;;17.50;;
3726;SDS011;1879;45.876;12.300;2023-12-04T04:28:35;18.27;;;16.57;;
3726;SDS011;1879;45.876;12.300;2023-12-04T04:31:02;18.30;;;16.67;;
3726;SDS011;1879;45.876;12.300;2023-12-04T04:33:30;18.37;;;16.60;;
3726;SDS011;1879;45.876;12.300;2023-12-04T04:35:57;18.80;;;17.10;;
3726;SDS011;1879;45.876;12.300;2023-12-04T04:38:24;18.80;;;17.13;;
3726;SDS011;1879;45.876;12.300;2023-12-04T04:40:51;18.27;;;16.67;;
3726;SDS011;1879;45.876;12.300;2023-12-04T04:43:19;17.33;;;15.80;;
3726;SDS011;1879;45.876;12.300;2023-12-04T04:45:46;17.47;;;15.77;;
3726;SDS011;1879;45.876;12.300;2023-12-04T04:48:13;17.73;;;15.93;;
3726;SDS011;1879;45.876;12.300;2023-12-04T04:50:40;17.07;;;15.63;;
3726;SDS011;1879;45.876;12.300;2023-12-04T04:53:07;17.77;;;16.17;;
3726;SDS011;1879;45.876;12.300;2023-12-04T04:55:34;17.03;;;15.60;;
3726;SDS011;1879;45.876;12.300;2023-12-04T04:58:01;17.60;;;16.10;;
3726;SDS011;1879;45.876;12.300;2023-12-04T05:00:29;16.47;;;14.70;;
3726;SDS011;1879;45.876;12.300;2023-12-04T05:02:56;14.83;;;13.33;;
3726;SDS011;1879;45.876;12.300;2023-12-04T05:05:23;15.83;;;14.33;;
3726;SDS011;1879;45.876;12.300;2023-12-04T05:07:50;16.10;;;14.70;;
3726;SDS011;1879;45.876;12.300;2023-12-04T05:10:17;14.73;;;13.50;;
3726;SDS011;1879;45.876;12.300;2023-12-04T05:12:44;16.23;;;14.63;;
3726;SDS011;1879;45.876;12.300;2023-12-04T05:15:11;17.13;;;15.53;;
3726;SDS011;1879;45.876;12.300;2023-12-04T05:17:39;16.80;;;15.30;;
3726;SDS011;1879;45.876;12.300;2023-12-04T05:20:07;17.00;;;15.57;;
3726;SDS011;1879;45.876;12.300;2023-12-04T05:22:35;15.80;;;14.20;;
3726;SDS011;1879;45.876;12.300;2023-12-04T05:25:02;17.30;;;15.67;;
3726;SDS011;1879;45.876;12.300;2023-12-04T05:27:29;20.23;;;18.40;;
3726;SDS011;1879;45.876;12.300;2023-12-04T05:29:56;19.57;;;17.67;;
3726;SDS011;1879;45.876;12.300;2023-12-04T05:32:23;19.47;;;17.57;;
3726;SDS011;1879;45.876;12.300;2023-12-04T05:34:51;19.27;;;17.50;;
3726;SDS011;1879;45.876;12.300;2023-12-04T05:37:18;19.57;;;17.73;;
3726;SDS011;1879;45.876;12.300;2023-12-04T05:39:45;19.07;;;17.47;;
3726;SDS011;1879;45.876;12.300;2023-12-04T05:42:12;19.23;;;17.53;;
3726;SDS011;1879;45.876;12.300;2023-12-04T05:44:39;17.80;;;15.90;;
3726;SDS011;1879;45.876;12.300;2023-12-04T05:47:06;18.63;;;16.80;;
3726;SDS011;1879;45.876;12.300;2023-12-04T05:49:34;18.30;;;16.70;;
3726;SDS011;1879;45.876;12.300;2023-12-04T05:52:03;18.07;;;16.50;;
3726;SDS011;1879;45.876;12.300;2023-12-04T05:54:30;18.10;;;16.70;;
3726;SDS011;1879;45.876;12.300;2023-12-04T05:56:57;17.77;;;16.33;;
3726;SDS011;1879;45.876;12.300;2023-12-04T05:59:24;18.07;;;16.57;;
3726;SDS011;1879;45.876;12.300;2023-12-04T06:01:51;16.47;;;14.90;;
3726;SDS011;1879;45.876;12.300;2023-12-04T06:04:18;17.70;;;16.10;;
3726;SDS011;1879;45.876;12.300;2023-12-04T06:06:45;18.10;;;16.50;;
3726;SDS011;1879;45.876;12.300;2023-12-04T06:09:13;17.60;;;16.10;;
3726;SDS011;1879;45.876;12.300;2023-12-04T06:11:41;17.50;;;15.80;;
3726;SDS011;1879;45.876;12.300;2023-12-04T06:14:08;16.13;;;14.73;;
3726;SDS011;1879;45.876;12.300;2023-12-04T06:16:36;17.40;;;15.80;;
3726;SDS011;1879;45.876;12.300;2023-12-04T06:19:03;17.20;;;15.70;;
3726;SDS011;1879;45.876;12.300;2023-12-04T06:21:30;18.40;;;14.80;;
3726;SDS011;1879;45.876;12.300;2023-12-04T06:23:57;16.10;;;14.57;;
3726;SDS011;1879;45.876;12.300;2023-12-04T06:26:26;15.83;;;14.37;;
3726;SDS011;1879;45.876;12.300;2023-12-04T06:28:54;15.93;;;14.40;;
3726;SDS011;1879;45.876;12.300;2023-12-04T06:31:21;16.10;;;14.63;;
3726;SDS011;1879;45.876;12.300;2023-12-04T06:33:49;15.27;;;13.70;;
3726;SDS011;1879;45.876;12.300;2023-12-04T06:36:16;15.93;;;14.33;;
3726;SDS011;1879;45.876;12.300;2023-12-04T06:38:45;15.73;;;14.33;;
3726;SDS011;1879;45.876;12.300;2023-12-04T06:41:16;16.43;;;15.03;;
3726;SDS011;1879;45.876;12.300;2023-12-04T06:43:48;14.87;;;13.47;;
3726;SDS011;1879;45.876;12.300;2023-12-04T06:46:15;14.70;;;13.53;;
3726;SDS011;1879;45.876;12.300;2023-12-04T06:48:43;17.17;;;15.57;;
3726;SDS011;1879;45.876;12.300;2023-12-04T06:51:10;19.53;;;17.70;;
3726;SDS011;1879;45.876;12.300;2023-12-04T06:53:37;18.93;;;17.17;;
3726;SDS011;1879;45.876;12.300;2023-12-04T06:56:05;21.90;;;19.80;;
3726;SDS011;1879;45.876;12.300;2023-12-04T06:58:32;21.00;;;19.10;;
3726;SDS011;1879;45.876;12.300;2023-12-04T07:01:01;19.47;;;17.70;;
3726;SDS011;1879;45.876;12.300;2023-12-04T07:03:28;21.40;;;19.50;;
3726;SDS011;1879;45.876;12.300;2023-12-04T07:05:55;22.40;;;17.80;;
3726;SDS011;1879;45.876;12.300;2023-12-04T07:08:22;17.77;;;16.27;;
3726;SDS011;1879;45.876;12.300;2023-12-04T07:10:49;21.87;;;19.67;;
3726;SDS011;1879;45.876;12.300;2023-12-04T07:13:16;21.70;;;19.40;;
3726;SDS011;1879;45.876;12.300;2023-12-04T07:15:43;26.83;;;22.67;;
3726;SDS011;1879;45.876;12.300;2023-12-04T07:18:11;22.10;;;20.10;;
3726;SDS011;1879;45.876;12.300;2023-12-04T07:20:38;23.60;;;21.20;;
3726;SDS011;1879;45.876;12.300;2023-12-04T07:23:05;25.27;;;22.70;;
3726;SDS011;1879;45.876;12.300;2023-12-04T07:25:35;21.43;;;19.50;;
3726;SDS011;1879;45.876;12.300;2023-12-04T07:28:02;22.23;;;20.07;;
3726;SDS011;1879;45.876;12.300;2023-12-04T07:30:29;23.63;;;21.43;;
3726;SDS011;1879;45.876;12.300;2023-12-04T07:32:56;23.63;;;21.33;;
3726;SDS011;1879;45.876;12.300;2023-12-04T07:35:25;25.17;;;21.13;;
3726;SDS011;1879;45.876;12.300;2023-12-04T07:37:52;24.60;;;22.17;;
3726;SDS011;1879;45.876;12.300;2023-12-04T07:40:19;22.90;;;20.50;;
3726;SDS011;1879;45.876;12.300;2023-12-04T07:42:47;23.67;;;21.27;;
3726;SDS011;1879;45.876;12.300;2023-12-04T07:45:15;21.93;;;19.70;;
3726;SDS011;1879;45.876;12.300;2023-12-04T07:47:42;22.63;;;20.23;;
3726;SDS011;1879;45.876;12.300;2023-12-04T07:50:09;23.80;;;21.40;;
3726;SDS011;1879;45.876;12.300;2023-12-04T07:52:38;24.83;;;20.37;;
3726;SDS011;1879;45.876;12.300;2023-12-04T07:55:05;23.40;;;20.90;;
3726;SDS011;1879;45.876;12.300;2023-12-04T07:57:32;21.47;;;19.67;;
3726;SDS011;1879;45.876;12.300;2023-12-04T07:59:59;23.47;;;21.17;;
3726;SDS011;1879;45.876;12.300;2023-12-04T08:02:26;26.50;;;24.10;;
3726;SDS011;1879;45.876;12.300;2023-12-04T08:04:54;26.53;;;24.20;;
3726;SDS011;1879;45.876;12.300;2023-12-04T08:07:21;28.80;;;24.37;;
3726;SDS011;1879;45.876;12.300;2023-12-04T08:09:49;27.53;;;25.07;;
3726;SDS011;1879;45.876;12.300;2023-12-04T08:12:17;25.37;;;23.27;;
3726;SDS011;1879;45.876;12.300;2023-12-04T08:14:44;26.00;;;23.60;;
3726;SDS011;1879;45.876;12.300;2023-12-04T08:17:12;24.00;;;21.60;;
3726;SDS011;1879;45.876;12.300;2023-12-04T08:19:39;25.47;;;23.07;;
3726;SDS011;1879;45.876;12.300;2023-12-04T08:22:06;27.20;;;24.63;;
3726;SDS011;1879;45.876;12.300;2023-12-04T08:24:33;24.53;;;22.23;;
3726;SDS011;1879;45.876;12.300;2023-12-04T08:27:02;26.37;;;23.97;;
3726;SDS011;1879;45.876;12.300;2023-12-04T08:29:29;24.23;;;22.10;;
3726;SDS011;1879;45.876;12.300;2023-12-04T08:31:56;24.53;;;22.23;;
3726;SDS011;1879;45.876;12.300;2023-12-04T08:34:23;24.77;;;22.50;;
3726;SDS011;1879;45.876;12.300;2023-12-04T08:36:50;25.57;;;23.27;;
3726;SDS011;1879;45.876;12.300;2023-12-04T08:39:17;27.80;;;23.30;;
3726;SDS011;1879;45.876;12.300;2023-12-04T08:41:44;25.47;;;22.87;;
3726;SDS011;1879;45.876;12.300;2023-12-04T08:44:13;23.30;;;21.03;;
3726;SDS011;1879;45.876;12.300;2023-12-04T08:46:41;22.50;;;20.60;;
3726;SDS011;1879;45.876;12.300;2023-12-04T08:49:08;22.77;;;20.67;;
3726;SDS011;1879;45.876;12.300;2023-12-04T08:51:35;21.37;;;19.27;;
3726;SDS011;1879;45.876;12.300;2023-12-04T08:54:02;21.23;;;19.23;;
3726;SDS011;1879;45.876;12.300;2023-12-04T08:56:29;23.57;;;21.47;;
3726;SDS011;1879;45.876;12.300;2023-12-04T08:58:56;22.10;;;20.10;;
3726;SDS011;1879;45.876;12.300;2023-12-04T09:01:25;21.37;;;19.57;;
3726;SDS011;1879;45.876;12.300;2023-12-04T09:03:52;21.40;;;19.30;;
3726;SDS011;1879;45.876;12.300;2023-12-04T09:06:19;24.57;;;22.37;;
3726;SDS011;1879;45.876;12.300;2023-12-04T09:08:46;22.10;;;20.10;;
3726;SDS011;1879;45.876;12.300;2023-12-04T09:11:13;24.50;;;22.00;;
3726;SDS011;1879;45.876;12.300;2023-12-04T09:13:40;18.43;;;16.73;;
3726;SDS011;1879;45.876;12.300;2023-12-04T09:16:07;20.93;;;19.00;;
3726;SDS011;1879;45.876;12.300;2023-12-04T09:18:36;23.27;;;21.00;;
3726;SDS011;1879;45.876;12.300;2023-12-04T09:21:03;20.80;;;18.80;;
3726;SDS011;1879;45.876;12.300;2023-12-04T09:23:30;17.93;;;16.43;;
3726;SDS011;1879;45.876;12.300;2023-12-04T09:25:58;20.03;;;15.90;;
3726;SDS011;1879;45.876;12.300;2023-12-04T09:28:24;17.97;;;16.17;;
3726;SDS011;1879;45.876;12.300;2023-12-04T09:30:52;18.63;;;16.93;;
3726;SDS011;1879;45.876;12.300;2023-12-04T09:33:19;19.30;;;17.40;;
3726;SDS011;1879;45.876;12.300;2023-12-04T09:35:47;18.87;;;17.00;;
3726;SDS011;1879;45.876;12.300;2023-12-04T09:38:14;18.53;;;16.93;;
3726;SDS011;1879;45.876;12.300;2023-12-04T09:40:41;17.13;;;15.63;;
3726;SDS011;1879;45.876;12.300;2023-12-04T09:43:08;28.97;;;26.17;;
3726;SDS011;1879;45.876;12.300;2023-12-04T09:45:35;25.30;;;23.20;;
3726;SDS011;1879;45.876;12.300;2023-12-04T09:48:05;16.40;;;15.00;;
3726;SDS011;1879;45.876;12.300;2023-12-04T09:50:34;18.37;;;16.87;;
3726;SDS011;1879;45.876;12.300;2023-12-04T09:53:03;17.63;;;16.10;;
3726;SDS011;1879;45.876;12.300;2023-12-04T09:55:32;16.63;;;15.10;;
3726;SDS011;1879;45.876;12.300;2023-12-04T09:57:59;15.43;;;14.03;;
3726;SDS011;1879;45.876;12.300;2023-12-04T10:00:28;15.77;;;14.17;;
3726;SDS011;1879;45.876;12.300;2023-12-04T10:02:56;15.70;;;14.30;;
3726;SDS011;1879;45.876;12.300;2023-12-04T10:05:23;15.90;;;14.20;;
3726;SDS011;1879;45.876;12.300;2023-12-04T10:07:50;21.00;;;15.80;;
3726;SDS011;1879;45.876;12.300;2023-12-04T10:10:18;15.37;;;13.87;;
3726;SDS011;1879;45.876;12.300;2023-12-04T10:12:45;16.53;;;14.83;;
3726;SDS011;1879;45.876;12.300;2023-12-04T10:15:12;16.83;;;13.80;;
3726;SDS011;1879;45.876;12.300;2023-12-04T10:17:40;11.60;;;10.60;;
3726;SDS011;1879;45.876;12.300;2023-12-04T10:20:09;11.33;;;9.63;;
3726;SDS011;1879;45.876;12.300;2023-12-04T10:22:38;12.70;;;11.60;;
3726;SDS011;1879;45.876;12.300;2023-12-04T10:25:15;9.67;;;8.87;;
3726;SDS011;1879;45.876;12.300;2023-12-04T10:27:44;7.50;;;6.90;;
3726;SDS011;1879;45.876;12.300;2023-12-04T10:30:21;7.93;;;7.17;;
3726;SDS011;1879;45.876;12.300;2023-12-04T10:32:55;7.10;;;6.50;;
3726;SDS011;1879;45.876;12.300;2023-12-04T10:35:25;7.90;;;7.20;;
3726;SDS011;1879;45.876;12.300;2023-12-04T10:37:55;14.80;;;7.30;;
3726;SDS011;1879;45.876;12.300;2023-12-04T10:40:23;8.00;;;7.40;;
3726;SDS011;1879;45.876;12.300;2023-12-04T10:42:57;6.23;;;5.73;;
3726;SDS011;1879;45.876;12.300;2023-12-04T10:45:37;6.77;;;6.17;;
3726;SDS011;1879;45.876;12.300;2023-12-04T10:48:08;15.50;;;8.83;;
3726;SDS011;1879;45.876;12.300;2023-12-04T10:50:36;10.17;;;9.27;;
3726;SDS011;1879;45.876;12.300;2023-12-04T10:53:04;10.90;;;9.33;;
3726;SDS011;1879;45.876;12.300;2023-12-04T10:55:32;10.67;;;9.67;;
3726;SDS011;1879;45.876;12.300;2023-12-04T10:58:01;9.67;;;8.87;;
3726;SDS011;1879;45.876;12.300;2023-12-04T11:00:31;9.70;;;8.90;;
3726;SDS011;1879;45.876;12.300;2023-12-04T11:03:01;9.40;;;8.40;;
3726;SDS011;1879;45.876;12.300;2023-12-04T11:05:31;9.30;;;8.40;;
3726;SDS011;1879;45.876;12.300;2023-12-04T11:08:02;10.40;;;9.40;;
3726;SDS011;1879;45.876;12.300;2023-12-04T11:10:31;10.00;;;8.97;;
3726;SDS011;1879;45.876;12.300;2023-12-04T11:13:02;8.97;;;8.20;;
3726;SDS011;1879;45.876;12.300;2023-12-04T11:15:33;8.57;;;7.87;;
3726;SDS011;1879;45.876;12.300;2023-12-04T11:18:05;9.50;;;8.70;;
3726;SDS011;1879;45.876;12.300;2023-12-04T11:20:36;9.50;;;8.70;;
3726;SDS011;1879;45.876;12.300;2023-12-04T11:23:07;9.00;;;8.30;;
3726;SDS011;1879;45.876;12.300;2023-12-04T11:25:35;9.67;;;8.67;;
3726;SDS011;1879;45.876;12.300;2023-12-04T11:28:03;10.47;;;9.27;;
3726;SDS011;1879;45.876;12.300;2023-12-04T11:30:31;10.10;;;9.10;;
3726;SDS011;1879;45.876;12.300;2023-12-04T11:32:59;8.77;;;8.03;;
3726;SDS011;1879;45.876;12.300;2023-12-04T11:35:27;10.87;;;8.90;;
3726;SDS011;1879;45.876;12.300;2023-12-04T11:37:54;10.20;;;9.30;;
3726;SDS011;1879;45.876;12.300;2023-12-04T11:40:22;10.50;;;9.60;;
3726;SDS011;1879;45.876;12.300;2023-12-04T11:42:49;10.23;;;9.20;;
3726;SDS011;1879;45.876;12.300;2023-12-04T11:45:20;10.70;;;9.70;;
3726;SDS011;1879;45.876;12.300;2023-12-04T11:47:51;9.90;;;9.10;;
3726;SDS011;1879;45.876;12.300;2023-12-04T11:50:20;10.80;;;9.80;;
3726;SDS011;1879;45.876;12.300;2023-12-04T11:52:48;11.67;;;10.47;;
3726;SDS011;1879;45.876;12.300;2023-12-04T11:55:18;12.60;;;11.50;;
3726;SDS011;1879;45.876;12.300;2023-12-04T11:57:48;11.97;;;10.80;;
3726;SDS011;1879;45.876;12.300;2023-12-04T12:00:21;12.17;;;11.03;;
3726;SDS011;1879;45.876;12.300;2023-12-04T12:03:02;11.10;;;10.17;;
3726;SDS011;1879;45.876;12.300;2023-12-04T12:05:31;13.47;;;12.00;;
3726;SDS011;1879;45.876;12.300;2023-12-04T12:08:03;13.40;;;11.70;;
3726;SDS011;1879;45.876;12.300;2023-12-04T12:10:30;12.33;;;10.20;;
3726;SDS011;1879;45.876;12.300;2023-12-04T12:12:58;12.47;;;11.17;;
3726;SDS011;1879;45.876;12.300;2023-12-04T12:15:28;12.50;;;11.20;;
3726;SDS011;1879;45.876;12.300;2023-12-04T12:17:55;13.77;;;12.57;;
3726;SDS011;1879;45.876;12.300;2023-12-04T12:20:22;12.10;;;11.10;;
3726;SDS011;1879;45.876;12.300;2023-12-04T12:22:49;14.53;;;12.70;;
3726;SDS011;1879;45.876;12.300;2023-12-04T12:25:17;12.93;;;11.63;;
3726;SDS011;1879;45.876;12.300;2023-12-04T12:27:44;14.57;;;12.80;;
3726;SDS011;1879;45.876;12.300;2023-12-04T12:30:11;14.40;;;13.00;;
3726;SDS011;1879;45.876;12.300;2023-12-04T12:32:40;15.70;;;14.23;;
3726;SDS011;1879;45.876;12.300;2023-12-04T12:35:07;16.90;;;15.37;;
3726;SDS011;1879;45.876;12.300;2023-12-04T12:37:35;16.60;;;15.00;;
3726;SDS011;1879;45.876;12.300;2023-12-04T12:40:04;16.30;;;14.63;;
3726;SDS011;1879;45.876;12.300;2023-12-04T12:42:34;15.90;;;14.40;;
3726;SDS011;1879;45.876;12.300;2023-12-04T12:45:03;16.97;;;15.37;;
3726;SDS011;1879;45.876;12.300;2023-12-04T12:47:30;15.13;;;13.53;;
3726;SDS011;1879;45.876;12.300;2023-12-04T12:49:59;16.40;;;13.93;;
3726;SDS011;1879;45.876;12.300;2023-12-04T12:52:27;14.97;;;13.60;;
3726;SDS011;1879;45.876;12.300;2023-12-04T12:54:55;15.37;;;14.07;;
3726;SDS011;1879;45.876;12.300;2023-12-04T12:57:22;14.27;;;13.10;;
3726;SDS011;1879;45.876;12.300;2023-12-04T12:59:50;16.43;;;14.73;;
3726;SDS011;1879;45.876;12.300;2023-12-04T13:02:18;16.60;;;14.97;;
3726;SDS011;1879;45.876;12.300;2023-12-04T13:04:46;16.53;;;15.10;;
3726;SDS011;1879;45.876;12.300;2023-12-04T13:07:15;17.60;;;16.03;;
3726;SDS011;1879;45.876;12.300;2023-12-04T13:09:43;16.27;;;14.67;;
3726;SDS011;1879;45.876;12.300;2023-12-04T13:12:11;15.30;;;13.90;;
3726;SDS011;1879;45.876;12.300;2023-12-04T13:14:39;16.57;;;15.00;;
3726;SDS011;1879;45.876;12.300;2023-12-04T13:17:06;17.17;;;15.57;;
3726;SDS011;1879;45.876;12.300;2023-12-04T13:19:33;18.83;;;17.10;;
3726;SDS011;1879;45.876;12.300;2023-12-04T13:22:01;19.03;;;17.23;;
3726;SDS011;1879;45.876;12.300;2023-12-04T13:24:30;17.90;;;16.00;;
3726;SDS011;1879;45.876;12.300;2023-12-04T13:26:57;18.37;;;16.77;;
3726;SDS011;1879;45.876;12.300;2023-12-04T13:29:24;20.77;;;18.87;;
3726;SDS011;1879;45.876;12.300;2023-12-04T13:31:51;19.60;;;17.60;;
3726;SDS011;1879;45.876;12.300;2023-12-04T13:34:18;19.27;;;17.40;;
3726;SDS011;1879;45.876;12.300;2023-12-04T13:36:45;19.43;;;17.63;;
3726;SDS011;1879;45.876;12.300;2023-12-04T13:39:12;19.07;;;17.20;;
3726;SDS011;1879;45.876;12.300;2023-12-04T13:41:46;18.03;;;16.20;;
3726;SDS011;1879;45.876;12.300;2023-12-04T13:44:30;17.50;;;15.90;;
3726;SDS011;1879;45.876;12.300;2023-12-04T13:46:58;18.10;;;16.20;;
3726;SDS011;1879;45.876;12.300;2023-12-04T13:49:25;19.03;;;17.20;;
3726;SDS011;1879;45.876;12.300;2023-12-04T13:51:52;18.10;;;16.50;;
3726;SDS011;1879;45.876;12.300;2023-12-04T13:54:20;18.83;;;16.93;;
3726;SDS011;1879;45.876;12.300;2023-12-04T13:56:54;21.63;;;19.13;;
3726;SDS011;1879;45.876;12.300;2023-12-04T13:59:22;20.27;;;18.23;;
3726;SDS011;1879;45.876;12.300;2023-12-04T14:01:50;18.70;;;16.70;;
3726;SDS011;1879;45.876;12.300;2023-12-04T14:04:19;16.43;;;14.70;;
3726;SDS011;1879;45.876;12.300;2023-12-04T14:06:50;19.20;;;15.00;;
3726;SDS011;1879;45.876;12.300;2023-12-04T14:09:17;16.63;;;15.10;;
3726;SDS011;1879;45.876;12.300;2023-12-04T14:11:44;15.83;;;14.37;;
3726;SDS011;1879;45.876;12.300;2023-12-04T14:14:12;15.97;;;14.47;;
3726;SDS011;1879;45.876;12.300;2023-12-04T14:16:39;17.50;;;15.23;;
3726;SDS011;1879;45.876;12.300;2023-12-04T14:19:07;17.93;;;16.03;;
3726;SDS011;1879;45.876;12.300;2023-12-04T14:21:34;17.47;;;15.77;;
3726;SDS011;1879;45.876;12.300;2023-12-04T14:24:04;17.43;;;15.87;;
3726;SDS011;1879;45.876;12.300;2023-12-04T14:26:31;17.00;;;15.37;;
3726;SDS011;1879;45.876;12.300;2023-12-04T14:28:58;19.00;;;17.30;;
3726;SDS011;1879;45.876;12.300;2023-12-04T14:31:30;19.40;;;17.50;;
3726;SDS011;1879;45.876;12.300;2023-12-04T14:33:56;23.40;;;19.57;;
3726;SDS011;1879;45.876;12.300;2023-12-04T14:36:23;26.43;;;23.93;;
3726;SDS011;1879;45.876;12.300;2023-12-04T14:38:52;29.13;;;26.53;;